Boa Vista の空港の天気 - METARとTAF

ボア・ヴィスタ国際空港 ( SBBV / BVB ) - ブラジル ロライマ州、Boa Vista
飛行場実況気象(Metar)
観測時間10/17 21:00 AMT (10/18 01:00 UTC)
風向・風速東 3m/s
視程10km以上
天気現象
なし
気温31℃
湿度59%
気圧1009hPa
METARSBBV 180100Z 09006KT CAVOK 31/22 Q1009
過去の天気等 Google飛行場航空写真 Wunderground天気予報

過去48時間のMETAR

飛行場予報(TAF)
発表時間: 10/17 18:00 AMT (10/17 22:00 UTC)
予報対象時間: 17日20時 AMT ~ 18日20時 AMT
風向・風速東 3m/s
視程10km以上
なし
18日3時 AMT ~ 18日5時 AMT に徐々に
風向・風速東北東 4m/s
全天の4割程度の雲 雲底高度 610m
少しの塔状積雲 雲底高度 760m
18日5時 AMT から 確率 30% で
天気現象
全天の4割程度の雲 雲底高度 610m
少しの積乱雲 雲底高度 760m
18日17時 AMT ~ 18日19時 AMT に徐々に
風向・風速東北東 3m/s
少しの雲 雲底高度 910m
TAF SBBV 172200Z 1800/1824 09005KT CAVOK TN26/1807Z TX34/1818Z
BECMG 1807/1809 06008KT SCT020 FEW025TCU
PROB30 1809/1813 TS SCT020 FEW025CB
BECMG 1 815/1817 10008KT SCT040 FEW045TCU
BECMG 1821/1823 07005KT FEW030 RMK PEH